Time;durP1;ratioP1;P1;durP2;ratioP2;P2;SDS_P1;SDS_P2;PMS_P1;PMS_P2;Temp;Humidity;BMP_temperature;BMP_pressure;BME280_temperature;BME280_humidity;BME280_pressure;Samples;Min_cycle;Max_cycle;Signal;HPM_P1;HPM_P2
2024/01/11 00:00:05;;;;;;;9.10;6.78;;;10.90;65.80;;;;;;349699;28;884;-56
2024/01/11 00:00:16;;;;;;;9.23;7.03;;;10.90;65.90;;;;;;349574;28;1387;-57
2024/01/11 00:00:27;;;;;;;7.65;6.57;;;10.90;65.90;;;;;;349651;28;1085;-56
2024/01/11 00:00:38;;;;;;;6.90;5.88;;;10.90;65.90;;;;;;349637;28;1003;-57
2024/01/11 00:00:48;;;;;;;6.57;5.65;;;10.90;65.90;;;;;;349650;28;1034;-56
2024/01/11 00:00:59;;;;;;;6.50;5.43;;;10.90;65.90;;;;;;349642;28;982;-57
2024/01/11 00:01:10;;;;;;;6.33;5.13;;;10.90;65.90;;;;;;349615;28;1025;-56
2024/01/11 00:01:21;;;;;;;6.93;5.07;;;10.90;65.80;;;;;;349667;28;994;-56
2024/01/11 00:01:31;;;;;;;7.05;5.25;;;10.90;65.80;;;;;;349649;28;1007;-56
2024/01/11 00:01:48;;;;;;;6.85;5.45;;;10.90;65.80;;;;;;349676;28;1018;-57
2024/01/11 00:01:59;;;;;;;6.50;5.65;;;10.90;65.90;;;;;;349526;28;1224;-57
2024/01/11 00:02:10;;;;;;;7.00;6.05;;;10.90;65.90;;;;;;349646;28;975;-56
2024/01/11 00:02:21;;;;;;;7.10;5.77;;;10.90;65.90;;;;;;349680;28;1010;-56
2024/01/11 00:02:32;;;;;;;7.35;5.55;;;10.90;66.00;;;;;;349571;28;1160;-57
2024/01/11 00:02:42;;;;;;;7.32;5.40;;;10.80;65.90;;;;;;349681;28;931;-56
2024/01/11 00:02:53;;;;;;;7.40;5.57;;;10.90;65.90;;;;;;349613;28;990;-56
2024/01/11 00:03:04;;;;;;;7.13;5.47;;;10.90;65.90;;;;;;349634;28;931;-57
2024/01/11 00:03:15;;;;;;;7.20;5.50;;;10.90;65.80;;;;;;349681;28;843;-58
2024/01/11 00:03:26;;;;;;;7.13;5.53;;;10.80;65.80;;;;;;349611;28;975;-57
2024/01/11 00:03:36;;;;;;;6.95;5.60;;;10.90;65.80;;;;;;349545;28;1011;-55
2024/01/11 00:03:47;;;;;;;6.93;5.63;;;10.80;65.70;;;;;;349619;28;1437;-57
2024/01/11 00:03:58;;;;;;;7.15;5.68;;;10.80;65.70;;;;;;349679;28;1010;-56
2024/01/11 00:04:09;;;;;;;7.13;5.60;;;10.90;65.70;;;;;;349608;28;1310;-56
2024/01/11 00:04:19;;;;;;;7.00;5.47;;;10.80;65.70;;;;;;349589;28;1038;-55
2024/01/11 00:04:30;;;;;;;7.23;5.70;;;10.80;65.70;;;;;;349663;28;845;-57
2024/01/11 00:04:41;;;;;;;7.32;6.00;;;10.80;65.70;;;;;;349645;28;1474;-56
2024/01/11 00:04:52;;;;;;;8.00;6.72;;;10.80;65.70;;;;;;349651;28;1078;-57
2024/01/11 00:05:02;;;;;;;8.32;6.90;;;10.80;65.70;;;;;;349583;28;1352;-56
2024/01/11 00:05:13;;;;;;;9.27;7.05;;;10.80;65.60;;;;;;349647;28;1029;-57
2024/01/11 00:05:24;;;;;;;8.77;6.77;;;10.80;65.70;;;;;;349644;28;1026;-57
2024/01/11 00:05:35;;;;;;;7.95;6.20;;;10.80;65.70;;;;;;349646;28;1031;-57
2024/01/11 00:05:46;;;;;;;6.75;5.30;;;10.80;65.80;;;;;;349579;28;963;-57
2024/01/11 00:05:57;;;;;;;6.20;4.82;;;10.80;65.90;;;;;;349691;28;1042;-56
2024/01/11 00:06:07;;;;;;;5.53;4.57;;;10.80;65.80;;;;;;349659;28;927;-57
2024/01/11 00:06:18;;;;;;;5.20;4.70;;;10.80;65.80;;;;;;349690;28;915;-57
2024/01/11 00:06:29;;;;;;;5.88;4.95;;;10.80;65.80;;;;;;349564;28;1094;-56
2024/01/11 00:06:43;;;;;;;6.93;5.40;;;10.80;65.80;;;;;;349626;28;912;-56
2024/01/11 00:06:54;;;;;;;7.00;5.30;;;10.80;65.80;;;;;;349660;28;879;-56
2024/01/11 00:07:05;;;;;;;6.93;4.97;;;10.80;65.90;;;;;;349653;28;891;-57
2024/01/11 00:07:16;;;;;;;7.05;5.20;;;10.80;65.90;;;;;;349569;28;1885;-57
2024/01/11 00:07:26;;;;;;;7.03;5.13;;;10.80;65.90;;;;;;349612;28;1098;-57
2024/01/11 00:07:37;;;;;;;6.97;5.60;;;10.80;66.00;;;;;;349614;28;1341;-57
2024/01/11 00:07:48;;;;;;;7.40;5.70;;;10.80;66.10;;;;;;349727;28;800;-56
2024/01/11 00:07:59;;;;;;;7.80;5.90;;;10.70;66.20;;;;;;349594;28;987;-57
2024/01/11 00:08:11;;;;;;;8.27;5.90;;;10.80;66.20;;;;;;349632;28;1022;-57
2024/01/11 00:08:22;;;;;;;8.98;6.10;;;10.80;66.30;;;;;;349648;28;1904;-57
2024/01/11 00:08:33;;;;;;;9.07;6.07;;;10.80;66.30;;;;;;349675;28;922;-56
2024/01/11 00:08:43;;;;;;;9.00;6.05;;;10.80;66.30;;;;;;349557;28;1030;-56
2024/01/11 00:08:54;;;;;;;9.60;6.18;;;10.70;66.30;;;;;;349668;28;856;-56
2024/01/11 00:09:05;;;;;;;10.63;6.50;;;10.80;66.30;;;;;;349635;28;1101;-57
2024/01/11 00:09:16;;;;;;;11.93;6.97;;;10.80;66.40;;;;;;349655;28;1030;-57
2024/01/11 00:09:26;;;;;;;12.82;7.38;;;10.70;66.40;;;;;;349590;28;902;-56
2024/01/11 00:09:42;;;;;;;12.93;7.57;;;10.80;66.40;;;;;;349652;28;1153;-56
2024/01/11 00:09:53;;;;;;;15.00;8.30;;;10.80;66.50;;;;;;349564;28;908;-56
2024/01/11 00:10:04;;;;;;;16.23;8.90;;;10.80;66.50;;;;;;349651;28;1062;-57
2024/01/11 00:10:16;;;;;;;16.90;9.10;;;10.80;66.50;;;;;;349549;28;1060;-57
2024/01/11 00:10:26;;;;;;;15.48;8.77;;;10.70;66.50;;;;;;349605;28;1130;-56
2024/01/11 00:10:37;;;;;;;13.93;7.93;;;10.70;66.50;;;;;;349613;28;1089;-56
2024/01/11 00:10:48;;;;;;;12.77;7.25;;;10.70;66.60;;;;;;349541;28;1910;-56
2024/01/11 00:10:59;;;;;;;11.52;7.03;;;10.70;66.60;;;;;;349540;28;1110;-56
2024/01/11 00:11:10;;;;;;;11.63;7.37;;;10.70;66.70;;;;;;349614;28;1098;-58
2024/01/11 00:11:21;;;;;;;11.40;7.38;;;10.70;66.60;;;;;;349653;28;824;-56
2024/01/11 00:11:31;;;;;;;12.70;7.50;;;10.70;66.70;;;;;;349602;28;1287;-57
2024/01/11 00:11:42;;;;;;;13.13;7.50;;;10.80;66.70;;;;;;349598;28;1042;-57
2024/01/11 00:11:53;;;;;;;13.88;7.90;;;10.70;66.70;;;;;;349710;28;909;-56
2024/01/11 00:12:04;;;;;;;14.02;8.20;;;10.80;66.80;;;;;;349559;28;1535;-55
2024/01/11 00:12:15;;;;;;;13.50;8.20;;;10.70;66.70;;;;;;349670;28;912;-56
2024/01/11 00:12:26;;;;;;;11.65;7.55;;;10.80;66.80;;;;;;349523;28;1134;-55
2024/01/11 00:12:37;;;;;;;10.00;6.70;;;10.70;66.70;;;;;;349623;28;1403;-56
2024/01/11 00:12:47;;;;;;;9.68;6.60;;;10.80;66.60;;;;;;349636;28;919;-56
2024/01/11 00:12:58;;;;;;;10.10;6.30;;;10.70;66.50;;;;;;349657;28;905;-56
2024/01/11 00:13:09;;;;;;;8.75;6.03;;;10.70;66.50;;;;;;349601;28;1073;-56
2024/01/11 00:13:20;;;;;;;9.00;5.73;;;10.70;66.50;;;;;;349654;28;876;-56
2024/01/11 00:13:31;;;;;;;9.25;5.93;;;10.80;66.40;;;;;;349617;28;951;-57
2024/01/11 00:13:41;;;;;;;9.18;5.88;;;10.80;66.40;;;;;;349661;28;1023;-57
2024/01/11 00:13:52;;;;;;;8.52;5.57;;;10.70;66.40;;;;;;349603;28;969;-56
2024/01/11 00:14:03;;;;;;;8.30;5.57;;;10.70;66.30;;;;;;349649;28;1077;-57
2024/01/11 00:14:14;;;;;;;8.00;5.50;;;10.80;66.40;;;;;;349622;28;1007;-57
2024/01/11 00:14:24;;;;;;;7.70;5.55;;;10.80;66.30;;;;;;349650;28;948;-55
2024/01/11 00:14:36;;;;;;;7.03;5.40;;;10.80;66.30;;;;;;349538;28;1110;-56
2024/01/11 00:14:46;;;;;;;6.85;5.10;;;10.80;66.30;;;;;;349664;28;825;-57
2024/01/11 00:14:58;;;;;;;6.88;5.07;;;10.80;66.30;;;;;;349633;28;976;-57
2024/01/11 00:15:09;;;;;;;6.78;4.82;;;10.80;66.30;;;;;;349679;28;927;-56
2024/01/11 00:15:20;;;;;;;7.10;5.00;;;10.80;66.30;;;;;;349571;28;1886;-56
2024/01/11 00:15:31;;;;;;;7.20;5.13;;;10.70;66.40;;;;;;349579;28;1181;-56
2024/01/11 00:15:41;;;;;;;7.32;5.13;;;10.80;66.40;;;;;;349671;28;1040;-57
2024/01/11 00:15:53;;;;;;;6.70;4.80;;;10.80;66.40;;;;;;349625;28;1405;-57
2024/01/11 00:16:04;;;;;;;5.78;4.54;;;10.80;66.40;;;;;;349575;28;1018;-58
2024/01/11 00:16:15;;;;;;;5.50;4.43;;;10.80;66.30;;;;;;349638;28;1141;-56
2024/01/11 00:16:26;;;;;;;5.75;4.40;;;10.70;66.30;;;;;;349591;28;1501;-57
2024/01/11 00:16:37;;;;;;;6.22;4.60;;;10.80;66.20;;;;;;349582;28;2542;-57
2024/01/11 00:16:47;;;;;;;6.32;4.40;;;10.70;66.10;;;;;;349588;28;987;-57
2024/01/11 00:16:58;;;;;;;5.88;4.45;;;10.70;66.10;;;;;;349614;28;1062;-56
2024/01/11 00:17:09;;;;;;;6.00;4.53;;;10.70;66.10;;;;;;349662;28;860;-57
2024/01/11 00:17:20;;;;;;;5.63;4.40;;;10.70;66.10;;;;;;349655;28;923;-56
2024/01/11 00:17:30;;;;;;;5.65;4.30;;;10.70;66.10;;;;;;349481;28;1614;-56
2024/01/11 00:17:41;;;;;;;5.55;4.15;;;10.70;66.10;;;;;;349642;28;1445;-57
2024/01/11 00:17:52;;;;;;;7.07;4.60;;;10.70;66.00;;;;;;349653;28;1041;-56
2024/01/11 00:18:03;;;;;;;7.67;4.80;;;10.70;66.00;;;;;;349569;28;1390;-55
2024/01/11 00:18:14;;;;;;;7.00;4.88;;;10.70;66.00;;;;;;349535;28;979;-55
2024/01/11 00:18:24;;;;;;;6.33;4.93;;;10.70;65.90;;;;;;349661;28;1034;-56
2024/01/11 00:18:35;;;;;;;7.13;4.90;;;10.70;65.90;;;;;;349687;28;844;-57
2024/01/11 00:18:46;;;;;;;7.10;4.72;;;10.70;65.90;;;;;;349662;28;1883;-56
2024/01/11 00:18:57;;;;;;;7.53;4.70;;;10.70;65.90;;;;;;349580;28;966;-56
2024/01/11 00:19:08;;;;;;;6.75;4.75;;;10.70;65.90;;;;;;349613;28;1050;-56
2024/01/11 00:19:19;;;;;;;7.70;5.20;;;10.70;66.00;;;;;;349688;28;828;-57
2024/01/11 00:19:30;;;;;;;7.95;5.28;;;10.70;65.90;;;;;;349671;28;817;-57
2024/01/11 00:19:41;;;;;;;9.70;5.43;;;10.70;66.00;;;;;;349813;28;1252;-57
2024/01/11 00:19:52;;;;;;;9.38;5.30;;;10.70;66.00;;;;;;349906;28;1034;-57
2024/01/11 00:20:03;;;;;;;8.38;5.30;;;10.70;65.90;;;;;;349913;28;884;-56
2024/01/11 00:20:14;;;;;;;7.32;5.13;;;10.70;65.90;;;;;;349825;28;1626;-57
2024/01/11 00:20:25;;;;;;;8.00;5.38;;;10.70;66.00;;;;;;349563;28;1273;-57
2024/01/11 00:20:36;;;;;;;8.65;5.53;;;10.70;66.00;;;;;;349919;28;1062;-56
2024/01/11 00:20:46;;;;;;;9.23;6.00;;;10.70;66.10;;;;;;349922;28;1102;-56
2024/01/11 00:20:57;;;;;;;9.80;6.47;;;10.70;66.10;;;;;;349936;28;1283;-56
2024/01/11 00:21:08;;;;;;;10.77;6.90;;;10.70;66.10;;;;;;349854;28;881;-57
2024/01/11 00:21:19;;;;;;;10.80;6.83;;;10.70;66.20;;;;;;349883;28;1169;-55
2024/01/11 00:21:29;;;;;;;11.68;7.10;;;10.70;66.20;;;;;;349891;28;1427;-56
2024/01/11 00:21:40;;;;;;;11.77;6.85;;;10.70;66.20;;;;;;349955;28;848;-56
2024/01/11 00:21:51;;;;;;;12.13;6.60;;;10.70;66.30;;;;;;349850;28;1161;-57
2024/01/11 00:22:02;;;;;;;12.03;6.30;;;10.70;66.30;;;;;;349933;28;963;-56
2024/01/11 00:22:12;;;;;;;11.57;6.10;;;10.70;66.30;;;;;;349922;28;1077;-56
2024/01/11 00:22:23;;;;;;;11.40;6.07;;;10.70;66.40;;;;;;349927;28;1034;-56
2024/01/11 00:22:34;;;;;;;10.32;6.07;;;10.70;66.40;;;;;;349894;28;1030;-56
2024/01/11 00:22:45;;;;;;;9.95;6.00;;;10.70;66.30;;;;;;349940;28;820;-56
2024/01/11 00:22:55;;;;;;;9.47;5.77;;;10.70;66.30;;;;;;349947;28;1137;-57
2024/01/11 00:23:06;;;;;;;9.32;5.63;;;10.70;66.30;;;;;;349912;28;1027;-56
2024/01/11 00:23:17;;;;;;;9.45;5.72;;;10.70;66.20;;;;;;349917;28;833;-55
2024/01/11 00:23:28;;;;;;;9.02;6.00;;;10.70;66.30;;;;;;349834;28;1082;-57
2024/01/11 00:23:38;;;;;;;10.15;6.25;;;10.70;66.30;;;;;;349964;28;864;-56
2024/01/11 00:23:50;;;;;;;10.83;6.27;;;10.70;66.40;;;;;;349921;28;947;-56
2024/01/11 00:24:00;;;;;;;12.10;6.25;;;10.70;66.40;;;;;;349908;28;1093;-56
2024/01/11 00:24:11;;;;;;;12.07;6.20;;;10.70;66.50;;;;;;349928;28;963;-56
2024/01/11 00:24:22;;;;;;;12.25;6.60;;;10.70;66.50;;;;;;349798;28;1094;-56
2024/01/11 00:24:33;;;;;;;10.50;6.60;;;10.70;66.60;;;;;;349924;28;998;-56
2024/01/11 00:24:43;;;;;;;10.52;6.63;;;10.70;66.60;;;;;;349872;28;1471;-56
2024/01/11 00:24:54;;;;;;;10.05;6.45;;;10.70;66.60;;;;;;349970;28;887;-56
2024/01/11 00:25:05;;;;;;;10.60;6.20;;;10.70;66.60;;;;;;349908;28;888;-55
2024/01/11 00:25:16;;;;;;;12.30;6.70;;;10.70;66.60;;;;;;349831;28;995;-55
2024/01/11 00:25:27;;;;;;;12.80;6.95;;;10.70;66.70;;;;;;349910;28;844;-56
2024/01/11 00:25:37;;;;;;;12.73;7.20;;;10.70;66.60;;;;;;349953;28;1086;-56
2024/01/11 00:25:48;;;;;;;11.43;6.75;;;10.70;66.60;;;;;;349902;28;2040;-56
2024/01/11 00:25:59;;;;;;;11.23;6.80;;;10.70;66.60;;;;;;349913;28;1761;-56
2024/01/11 00:26:13;;;;;;;11.15;7.00;;;10.70;66.60;;;;;;349840;28;975;-56
2024/01/11 00:26:23;;;;;;;12.02;6.82;;;10.70;66.60;;;;;;349935;28;1840;-56
2024/01/11 00:26:34;;;;;;;11.93;6.65;;;10.70;66.60;;;;;;349943;28;967;-57
2024/01/11 00:26:45;;;;;;;11.38;6.68;;;10.70;66.60;;;;;;349896;28;1030;-56
2024/01/11 00:26:56;;;;;;;10.38;6.40;;;10.70;66.60;;;;;;349942;28;1054;-56
2024/01/11 00:27:06;;;;;;;10.33;6.57;;;10.70;66.70;;;;;;349825;28;998;-56
2024/01/11 00:27:17;;;;;;;10.57;6.60;;;10.70;66.70;;;;;;349927;28;821;-56
2024/01/11 00:27:28;;;;;;;10.60;6.50;;;10.60;66.70;;;;;;349952;28;1869;-56
2024/01/11 00:27:39;;;;;;;10.25;6.30;;;10.70;66.70;;;;;;349950;28;1129;-56
2024/01/11 00:27:49;;;;;;;10.38;6.30;;;10.60;66.70;;;;;;349929;28;1039;-55
2024/01/11 00:28:01;;;;;;;9.67;6.00;;;10.60;66.70;;;;;;349798;28;1369;-56
2024/01/11 00:28:12;;;;;;;10.02;5.97;;;10.60;66.60;;;;;;349973;28;915;-56
2024/01/11 00:28:23;;;;;;;9.25;5.85;;;10.70;66.60;;;;;;349869;28;1149;-55
2024/01/11 00:28:34;;;;;;;10.10;5.85;;;10.70;66.60;;;;;;349899;28;1023;-56
2024/01/11 00:28:45;;;;;;;10.98;6.00;;;10.60;66.70;;;;;;349798;28;1154;-56
2024/01/11 00:28:55;;;;;;;12.43;6.25;;;10.60;66.70;;;;;;349922;28;987;-56
2024/01/11 00:29:07;;;;;;;11.70;6.40;;;10.60;66.60;;;;;;349883;28;1429;-57
2024/01/11 00:29:17;;;;;;;11.30;6.75;;;10.70;66.60;;;;;;349903;28;1192;-56
2024/01/11 00:29:28;;;;;;;11.10;6.97;;;10.60;66.70;;;;;;349804;28;1398;-56
2024/01/11 00:29:39;;;;;;;11.38;6.90;;;10.60;66.60;;;;;;349849;28;1098;-57
2024/01/11 00:29:49;;;;;;;11.20;6.50;;;10.60;66.50;;;;;;349911;28;963;-56
2024/01/11 00:30:00;;;;;;;10.52;6.38;;;10.60;66.50;;;;;;349907;28;932;-57
2024/01/11 00:30:11;;;;;;;10.13;6.18;;;10.60;66.50;;;;;;349864;28;988;-55
2024/01/11 00:30:23;;;;;;;10.18;6.20;;;10.70;66.50;;;;;;349927;28;820;-56
2024/01/11 00:30:34;;;;;;;10.10;6.25;;;10.60;66.40;;;;;;349910;28;991;-57
2024/01/11 00:30:44;;;;;;;10.47;6.57;;;10.60;66.50;;;;;;349808;28;1909;-56
2024/01/11 00:30:55;;;;;;;11.10;6.72;;;10.60;66.50;;;;;;349795;28;1102;-57
2024/01/11 00:31:06;;;;;;;10.48;6.50;;;10.60;66.50;;;;;;349893;28;1379;-56
2024/01/11 00:31:17;;;;;;;8.88;6.18;;;10.60;66.50;;;;;;349900;28;999;-56
2024/01/11 00:31:27;;;;;;;9.60;6.13;;;10.60;66.60;;;;;;349829;28;1719;-57
2024/01/11 00:31:38;;;;;;;9.03;5.83;;;10.60;66.60;;;;;;349853;28;1098;-56
2024/01/11 00:31:49;;;;;;;8.85;5.63;;;10.60;66.60;;;;;;349890;28;1007;-56
2024/01/11 00:32:00;;;;;;;7.82;5.43;;;10.60;66.60;;;;;;349886;28;995;-56
2024/01/11 00:32:10;;;;;;;9.45;5.68;;;10.60;66.60;;;;;;349950;28;1862;-56
2024/01/11 00:32:21;;;;;;;9.98;5.93;;;10.60;66.60;;;;;;349865;28;1066;-55
2024/01/11 00:32:32;;;;;;;9.13;5.60;;;10.60;66.50;;;;;;349837;28;1402;-56
2024/01/11 00:32:43;;;;;;;8.50;5.60;;;10.60;66.50;;;;;;349940;28;888;-56
2024/01/11 00:32:53;;;;;;;9.30;5.80;;;10.60;66.40;;;;;;349932;28;1034;-56
2024/01/11 00:33:04;;;;;;;11.65;6.57;;;10.60;66.40;;;;;;349837;28;1551;-56
2024/01/11 00:33:15;;;;;;;14.23;7.30;;;10.50;66.30;;;;;;349873;28;983;-56
2024/01/11 00:33:25;;;;;;;14.32;7.75;;;10.60;66.40;;;;;;349855;28;1502;-57
2024/01/11 00:33:36;;;;;;;13.00;7.32;;;10.60;66.40;;;;;;349871;28;1404;-57
2024/01/11 00:33:47;;;;;;;11.10;6.80;;;10.60;66.40;;;;;;349878;28;1098;-55
2024/01/11 00:33:58;;;;;;;10.37;6.10;;;10.60;66.40;;;;;;349910;28;955;-56
2024/01/11 00:34:08;;;;;;;9.18;5.72;;;10.60;66.30;;;;;;349835;28;1011;-57
2024/01/11 00:34:19;;;;;;;8.57;5.25;;;10.50;66.20;;;;;;349914;28;932;-56
2024/01/11 00:34:30;;;;;;;9.20;5.32;;;10.60;66.20;;;;;;350050;28;1149;-56
2024/01/11 00:34:41;;;;;;;8.63;5.22;;;10.60;66.10;;;;;;349926;28;1048;-56
2024/01/11 00:34:52;;;;;;;7.97;5.10;;;10.60;66.10;;;;;;349938;28;1812;-56
2024/01/11 00:35:03;;;;;;;7.22;4.85;;;10.60;66.00;;;;;;349815;28;1189;-56
2024/01/11 00:35:14;;;;;;;7.57;5.10;;;10.50;66.00;;;;;;349917;28;895;-55
2024/01/11 00:35:25;;;;;;;7.78;5.20;;;10.60;66.00;;;;;;349868;28;1229;-57
2024/01/11 00:35:36;;;;;;;7.78;5.20;;;10.60;66.10;;;;;;349943;28;951;-56
2024/01/11 00:35:46;;;;;;;7.55;5.15;;;10.60;66.10;;;;;;349915;28;967;-56
2024/01/11 00:35:58;;;;;;;7.10;5.10;;;10.60;66.10;;;;;;349788;28;1211;-55
2024/01/11 00:36:09;;;;;;;6.65;5.20;;;10.50;66.00;;;;;;349912;28;1015;-57
2024/01/11 00:36:20;;;;;;;6.97;5.30;;;10.60;66.00;;;;;;349926;28;1549;-56
2024/01/11 00:36:32;;;;;;;9.80;6.05;;;10.60;66.00;;;;;;349851;28;1194;-57
2024/01/11 00:36:43;;;;;;;10.85;6.68;;;10.60;65.90;;;;;;349944;28;860;-57
2024/01/11 00:36:54;;;;;;;10.93;7.18;;;10.60;66.00;;;;;;349855;28;938;-56
2024/01/11 00:37:05;;;;;;;10.73;7.40;;;10.60;66.00;;;;;;349843;28;1408;-56
2024/01/11 00:37:16;;;;;;;12.15;7.82;;;10.60;65.90;;;;;;349811;28;1638;-56
2024/01/11 00:37:27;;;;;;;13.02;8.45;;;10.60;65.90;;;;;;349896;28;857;-56
2024/01/11 00:37:38;;;;;;;11.80;8.53;;;10.60;65.90;;;;;;349919;28;971;-57
2024/01/11 00:37:49;;;;;;;10.73;8.20;;;10.60;65.90;;;;;;349830;28;1015;-57
2024/01/11 00:38:00;;;;;;;9.63;7.43;;;10.60;65.80;;;;;;349958;28;1003;-57
2024/01/11 00:38:10;;;;;;;9.27;6.82;;;10.60;65.80;;;;;;349906;28;900;-56
2024/01/11 00:38:21;;;;;;;8.80;6.30;;;10.60;65.80;;;;;;349882;28;1082;-56
2024/01/11 00:38:32;;;;;;;7.85;6.10;;;10.60;65.80;;;;;;349917;28;821;-56
2024/01/11 00:38:43;;;;;;;7.55;5.82;;;10.60;65.80;;;;;;349809;28;1169;-56
2024/01/11 00:38:54;;;;;;;7.25;5.68;;;10.60;65.80;;;;;;349912;28;974;-56
2024/01/11 00:39:04;;;;;;;7.25;5.78;;;10.60;65.80;;;;;;349896;28;919;-56
2024/01/11 00:39:15;;;;;;;7.23;6.13;;;10.60;65.70;;;;;;349879;28;1102;-56
2024/01/11 00:39:26;;;;;;;7.00;5.82;;;10.60;65.70;;;;;;349820;28;1415;-57
2024/01/11 00:39:37;;;;;;;7.15;5.72;;;10.60;65.70;;;;;;349791;28;1393;-56
2024/01/11 00:39:48;;;;;;;6.78;5.35;;;10.60;65.70;;;;;;349907;28;1038;-56
2024/01/11 00:39:58;;;;;;;7.30;5.72;;;10.60;65.70;;;;;;349844;28;1015;-56
2024/01/11 00:40:09;;;;;;;6.83;5.57;;;10.60;65.70;;;;;;349958;28;860;-56
2024/01/11 00:40:20;;;;;;;7.03;5.55;;;10.60;65.70;;;;;;349892;28;2028;-57
2024/01/11 00:40:31;;;;;;;6.87;5.40;;;10.60;65.70;;;;;;349731;28;1277;-56
2024/01/11 00:40:42;;;;;;;7.57;5.70;;;10.60;65.70;;;;;;349841;28;1019;-55
2024/01/11 00:40:53;;;;;;;7.88;5.93;;;10.60;65.70;;;;;;349853;28;943;-57
2024/01/11 00:41:04;;;;;;;8.32;6.43;;;10.60;65.60;;;;;;349852;28;1090;-56
2024/01/11 00:41:14;;;;;;;9.02;6.93;;;10.60;65.60;;;;;;349887;28;1043;-56
2024/01/11 00:41:25;;;;;;;9.43;7.43;;;10.60;65.60;;;;;;349766;28;1174;-58
2024/01/11 00:41:36;;;;;;;9.77;7.55;;;10.60;65.60;;;;;;349844;28;1713;-56
2024/01/11 00:41:47;;;;;;;9.63;7.60;;;10.60;65.50;;;;;;349902;28;1075;-56
2024/01/11 00:41:57;;;;;;;9.27;7.30;;;10.70;65.60;;;;;;349878;28;1255;-55
2024/01/11 00:42:08;;;;;;;9.38;6.97;;;10.60;65.60;;;;;;349652;28;1285;-56
2024/01/11 00:42:19;;;;;;;8.70;6.28;;;10.60;65.50;;;;;;349793;28;1039;-56
2024/01/11 00:42:30;;;;;;;8.13;6.07;;;10.60;65.50;;;;;;349871;28;1086;-56
2024/01/11 00:42:40;;;;;;;8.20;6.10;;;10.60;65.50;;;;;;349887;28;990;-56
2024/01/11 00:42:51;;;;;;;9.07;6.47;;;10.60;65.50;;;;;;349899;28;959;-56
2024/01/11 00:43:02;;;;;;;9.35;6.60;;;10.60;65.40;;;;;;349935;28;876;-57
2024/01/11 00:43:13;;;;;;;8.32;6.57;;;10.60;65.40;;;;;;349839;28;1035;-57
2024/01/11 00:43:24;;;;;;;8.43;7.05;;;10.60;65.40;;;;;;349935;28;1010;-56
2024/01/11 00:43:34;;;;;;;10.20;8.57;;;10.60;65.50;;;;;;349864;28;1300;-56
2024/01/11 00:43:45;;;;;;;11.60;9.63;;;10.60;65.50;;;;;;349944;28;785;-58
2024/01/11 00:43:56;;;;;;;12.00;9.82;;;10.60;65.50;;;;;;349867;28;1647;-56
2024/01/11 00:44:07;;;;;;;11.35;9.02;;;10.60;65.60;;;;;;349858;28;882;-57
2024/01/11 00:44:18;;;;;;;10.18;7.88;;;10.60;65.60;;;;;;349907;28;884;-56
2024/01/11 00:44:29;;;;;;;9.38;7.18;;;10.60;65.70;;;;;;349862;28;1867;-56
2024/01/11 00:44:40;;;;;;;8.38;6.53;;;10.50;65.80;;;;;;349859;28;1019;-57
2024/01/11 00:44:51;;;;;;;8.40;6.60;;;10.50;65.80;;;;;;349849;28;1852;-57
2024/01/11 00:45:02;;;;;;;9.25;6.82;;;10.60;65.90;;;;;;349806;28;1125;-57
2024/01/11 00:45:12;;;;;;;9.13;6.88;;;10.60;65.90;;;;;;349897;28;1002;-57
2024/01/11 00:45:23;;;;;;;9.57;6.88;;;10.50;66.00;;;;;;349862;28;1090;-57
2024/01/11 00:45:35;;;;;;;8.93;6.75;;;10.60;66.00;;;;;;349830;28;1651;-56
2024/01/11 00:45:45;;;;;;;8.48;6.50;;;10.50;66.00;;;;;;349857;28;1185;-57
2024/01/11 00:45:56;;;;;;;8.02;6.40;;;10.60;66.10;;;;;;349736;28;1078;-56
2024/01/11 00:46:07;;;;;;;8.43;6.22;;;10.60;66.10;;;;;;349954;28;1049;-56
2024/01/11 00:46:18;;;;;;;8.65;5.88;;;10.50;66.10;;;;;;349907;28;1185;-56
2024/01/11 00:46:29;;;;;;;8.48;5.90;;;10.50;66.10;;;;;;349932;28;911;-57
2024/01/11 00:46:40;;;;;;;9.80;6.50;;;10.60;66.10;;;;;;349910;28;880;-56
2024/01/11 00:46:51;;;;;;;11.80;6.93;;;10.50;66.10;;;;;;349809;28;1002;-56
2024/01/11 00:47:02;;;;;;;12.80;7.22;;;10.50;66.10;;;;;;349866;28;975;-56
2024/01/11 00:47:13;;;;;;;13.68;7.45;;;10.50;66.10;;;;;;349935;28;979;-56
2024/01/11 00:47:23;;;;;;;13.90;7.60;;;10.50;66.10;;;;;;349883;28;1744;-56
2024/01/11 00:47:34;;;;;;;13.47;7.00;;;10.50;66.10;;;;;;349918;28;861;-56
2024/01/11 00:47:45;;;;;;;11.53;6.53;;;10.50;66.20;;;;;;349788;28;1027;-56
2024/01/11 00:47:55;;;;;;;10.88;6.47;;;10.50;66.10;;;;;;349876;28;991;-57
2024/01/11 00:48:06;;;;;;;11.02;6.47;;;10.50;66.20;;;;;;349951;28;801;-56
2024/01/11 00:48:17;;;;;;;10.93;6.25;;;10.50;66.20;;;;;;349837;28;1847;-56
2024/01/11 00:48:28;;;;;;;10.50;6.17;;;10.40;66.20;;;;;;349791;28;1657;-56
2024/01/11 00:48:38;;;;;;;10.00;5.97;;;10.50;66.20;;;;;;349785;28;1086;-56
2024/01/11 00:48:49;;;;;;;9.95;6.20;;;10.50;66.20;;;;;;349857;28;1299;-56
2024/01/11 00:49:00;;;;;;;11.05;6.30;;;10.50;66.20;;;;;;349871;28;1011;-56
2024/01/11 00:49:11;;;;;;;11.27;6.32;;;10.50;66.20;;;;;;349821;28;1506;-57
2024/01/11 00:49:22;;;;;;;12.10;6.73;;;10.40;66.20;;;;;;349825;28;1568;-56
2024/01/11 00:49:32;;;;;;;11.63;6.90;;;10.50;66.20;;;;;;349774;28;936;-56
2024/01/11 00:49:43;;;;;;;12.50;7.32;;;10.50;66.20;;;;;;349913;28;1070;-56
2024/01/11 00:49:54;;;;;;;11.77;7.00;;;10.50;66.20;;;;;;349834;28;998;-56
2024/01/11 00:50:05;;;;;;;10.52;6.60;;;10.40;66.30;;;;;;349812;28;1429;-56
2024/01/11 00:50:16;;;;;;;10.13;6.47;;;10.40;66.30;;;;;;349801;28;1054;-56
2024/01/11 00:50:27;;;;;;;9.23;6.18;;;10.40;66.30;;;;;;349905;28;845;-57
2024/01/11 00:50:38;;;;;;;8.18;6.00;;;10.40;66.40;;;;;;349885;28;797;-56
2024/01/11 00:50:48;;;;;;;7.60;5.72;;;10.40;66.40;;;;;;349806;28;1976;-57
2024/01/11 00:50:59;;;;;;;7.87;5.70;;;10.40;66.40;;;;;;349957;28;980;-56
2024/01/11 00:51:10;;;;;;;8.25;5.68;;;10.40;66.40;;;;;;349839;28;1015;-56
2024/01/11 00:51:20;;;;;;;8.55;5.82;;;10.40;66.50;;;;;;349856;28;1242;-56
2024/01/11 00:51:31;;;;;;;9.02;5.90;;;10.40;66.40;;;;;;349840;28;1102;-57
2024/01/11 00:51:42;;;;;;;8.50;5.67;;;10.40;66.50;;;;;;349855;28;1084;-56
2024/01/11 00:51:53;;;;;;;8.27;5.45;;;10.40;66.50;;;;;;349871;28;1101;-56
2024/01/11 00:52:04;;;;;;;7.93;5.40;;;10.40;66.50;;;;;;349775;28;1051;-56
2024/01/11 00:52:14;;;;;;;7.97;5.50;;;10.40;66.50;;;;;;349873;28;956;-57
2024/01/11 00:52:25;;;;;;;8.18;5.82;;;10.40;66.50;;;;;;349924;28;887;-56
2024/01/11 00:52:36;;;;;;;8.90;5.93;;;10.40;66.50;;;;;;349868;28;1122;-57
2024/01/11 00:52:47;;;;;;;9.93;6.22;;;10.40;66.50;;;;;;349884;28;1091;-56
2024/01/11 00:52:57;;;;;;;9.98;6.30;;;10.40;66.50;;;;;;349828;28;936;-56
2024/01/11 00:53:09;;;;;;;9.90;6.38;;;10.40;66.50;;;;;;349855;28;1054;-57
2024/01/11 00:53:20;;;;;;;10.25;6.40;;;10.40;66.50;;;;;;349861;28;1106;-56
2024/01/11 00:53:31;;;;;;;9.40;6.07;;;10.40;66.40;;;;;;349815;28;1369;-58
2024/01/11 00:53:41;;;;;;;8.97;5.90;;;10.40;66.40;;;;;;349783;28;1014;-55
2024/01/11 00:53:52;;;;;;;8.57;6.05;;;10.40;66.50;;;;;;349926;28;983;-56
2024/01/11 00:54:03;;;;;;;8.30;6.00;;;10.40;66.50;;;;;;349851;28;979;-56
2024/01/11 00:54:14;;;;;;;7.78;5.90;;;10.40;66.50;;;;;;349904;28;801;-56
2024/01/11 00:54:25;;;;;;;8.00;6.13;;;10.40;66.50;;;;;;349776;28;1110;-56
2024/01/11 00:54:36;;;;;;;8.25;6.20;;;10.40;66.40;;;;;;349907;28;990;-56
2024/01/11 00:54:46;;;;;;;8.63;6.20;;;10.40;66.40;;;;;;349915;28;923;-57
2024/01/11 00:54:57;;;;;;;8.60;6.03;;;10.40;66.40;;;;;;349878;28;1102;-56
2024/01/11 00:55:08;;;;;;;8.50;6.10;;;10.40;66.40;;;;;;349843;28;1333;-57
2024/01/11 00:55:19;;;;;;;8.23;5.82;;;10.40;66.30;;;;;;349836;28;1102;-56
2024/01/11 00:55:29;;;;;;;8.57;5.90;;;10.40;66.30;;;;;;349843;28;971;-56
2024/01/11 00:55:40;;;;;;;9.57;5.97;;;10.30;66.30;;;;;;349907;28;1200;-57
2024/01/11 00:55:51;;;;;;;9.80;6.47;;;10.40;66.30;;;;;;349784;28;1156;-55
2024/01/11 00:56:02;;;;;;;9.68;6.57;;;10.40;66.20;;;;;;349877;28;959;-56
2024/01/11 00:56:17;;;;;;;8.80;6.35;;;10.40;66.20;;;;;;349901;28;896;-56
2024/01/11 00:56:28;;;;;;;8.60;5.95;;;10.40;66.10;;;;;;349804;28;1981;-57
2024/01/11 00:56:38;;;;;;;8.88;5.97;;;10.40;66.20;;;;;;349813;28;1086;-56
2024/01/11 00:56:49;;;;;;;9.50;6.32;;;10.30;66.10;;;;;;349852;28;1161;-56
2024/01/11 00:57:00;;;;;;;9.70;6.80;;;10.30;66.10;;;;;;349903;28;1034;-56
2024/01/11 00:57:10;;;;;;;9.50;7.13;;;10.40;66.20;;;;;;349808;28;1083;-56
2024/01/11 00:57:21;;;;;;;9.30;7.10;;;10.40;66.20;;;;;;349881;28;1018;-57
2024/01/11 00:57:32;;;;;;;9.20;6.90;;;10.30;66.10;;;;;;349838;28;1321;-57
2024/01/11 00:57:43;;;;;;;8.77;6.53;;;10.30;66.10;;;;;;349843;28;1089;-57
2024/01/11 00:57:53;;;;;;;9.00;6.60;;;10.40;66.10;;;;;;349912;28;1038;-55
2024/01/11 00:58:04;;;;;;;8.63;6.30;;;10.40;66.00;;;;;;349765;28;1094;-57
2024/01/11 00:58:15;;;;;;;10.02;6.72;;;10.30;66.00;;;;;;349838;28;1457;-56